createdAt,value
2023-04-21T00:04:30.595Z,15.80
2023-04-21T00:09:34.134Z,16.20
2023-04-21T00:14:40.045Z,14.50
2023-04-21T00:19:44.469Z,15.38
2023-04-21T00:24:47.924Z,15.70
2023-04-21T00:29:52.668Z,15.25
2023-04-21T00:34:56.404Z,13.93
2023-04-21T00:39:59.954Z,15.75
2023-04-21T00:45:04.985Z,14.38
2023-04-21T00:50:08.955Z,13.77
2023-04-21T00:55:12.930Z,14.27
2023-04-21T01:00:18.666Z,13.40
2023-04-21T01:05:22.182Z,13.63
2023-04-21T01:10:26.420Z,14.82
2023-04-21T01:15:31.862Z,13.85
2023-04-21T01:20:36.218Z,14.25
2023-04-21T01:25:41.025Z,13.20
2023-04-21T01:30:44.484Z,13.02
2023-04-21T01:35:48.944Z,12.85
2023-04-21T01:40:55.557Z,14.00
2023-04-21T01:45:59.080Z,14.57
2023-04-21T01:51:02.583Z,14.75
2023-04-21T01:56:08.163Z,14.57
2023-04-21T02:01:11.833Z,12.82
2023-04-21T02:06:15.270Z,12.98
2023-04-21T02:11:20.370Z,15.32
2023-04-21T02:16:26.309Z,15.73
2023-04-21T02:21:30.516Z,14.95
2023-04-21T02:26:35.285Z,16.27
2023-04-21T02:31:53.745Z,14.38
2023-04-21T02:37:01.703Z,14.02
2023-04-21T02:42:06.595Z,14.00
2023-04-21T02:47:09.992Z,14.10
2023-04-21T02:52:13.688Z,16.23
2023-04-21T02:57:18.401Z,15.70
2023-04-21T03:02:22.062Z,15.60
2023-04-21T03:07:25.723Z,16.20
2023-04-21T03:12:30.660Z,16.05
2023-04-21T03:17:34.131Z,15.43
2023-04-21T03:22:37.865Z,16.02
2023-04-21T03:27:42.643Z,15.23
2023-04-21T03:32:46.021Z,14.80
2023-04-21T03:37:50.264Z,17.38
2023-04-21T03:42:55.000Z,16.98
2023-04-21T03:47:58.449Z,15.40
2023-04-21T03:53:02.009Z,15.57
2023-04-21T03:58:07.779Z,14.57
2023-04-21T04:03:11.324Z,15.68
2023-04-21T04:08:14.930Z,16.33
2023-04-21T04:13:19.763Z,15.70
2023-04-21T04:18:23.411Z,15.38
2023-04-21T04:23:27.873Z,15.18
2023-04-21T04:28:33.797Z,16.05
2023-04-21T04:33:37.582Z,15.25
2023-04-21T04:38:42.209Z,16.92
2023-04-21T04:43:47.476Z,17.10
2023-04-21T04:48:50.874Z,19.73
2023-04-21T04:53:54.360Z,17.10
2023-04-21T04:58:59.117Z,17.17
2023-04-21T05:04:02.593Z,18.00
2023-04-21T05:09:06.138Z,17.85
2023-04-21T05:14:10.929Z,18.40
2023-04-21T05:19:15.343Z,18.63
2023-04-21T05:24:23.301Z,18.65
2023-04-21T05:29:28.029Z,19.00
2023-04-21T05:34:31.463Z,22.13
2023-04-21T05:39:34.855Z,19.75
2023-04-21T05:44:39.931Z,16.88
2023-04-21T05:49:49.997Z,17.40
2023-04-21T05:54:53.908Z,17.98
2023-04-21T05:59:59.168Z,15.52
2023-04-21T06:05:02.930Z,16.02
2023-04-21T06:10:07.322Z,16.30
2023-04-21T06:15:12.599Z,17.52
2023-04-21T06:20:17.805Z,16.05
2023-04-21T06:25:21.635Z,16.23
2023-04-21T06:30:26.854Z,16.20
2023-04-21T06:35:30.818Z,15.68
2023-04-21T06:40:35.434Z,16.08
2023-04-21T06:45:40.252Z,17.15
2023-04-21T06:50:46.425Z,15.63
2023-04-21T06:55:50.254Z,16.55
2023-04-21T07:00:55.011Z,17.88
2023-04-21T07:05:58.550Z,17.50
2023-04-21T07:11:02.217Z,21.90
2023-04-21T07:16:07.645Z,17.02
2023-04-21T07:21:11.055Z,17.15
2023-04-21T07:26:14.529Z,16.45
2023-04-21T07:31:19.334Z,17.55
2023-04-21T07:36:22.746Z,16.60
2023-04-21T07:41:26.923Z,16.35
2023-04-21T07:46:32.249Z,17.02
2023-04-21T07:51:36.106Z,15.30
2023-04-21T07:56:40.194Z,14.77
2023-04-21T08:01:48.659Z,15.07
2023-04-21T08:06:52.612Z,13.60
2023-04-21T08:11:58.050Z,13.45
2023-04-21T08:17:03.372Z,12.93
2023-04-21T08:22:06.886Z,14.25
2023-04-21T08:27:10.330Z,14.30
2023-04-21T08:32:15.145Z,14.30
2023-04-21T08:37:18.861Z,14.43
2023-04-21T08:42:23.124Z,14.02
2023-04-21T08:47:29.968Z,13.75
2023-04-21T08:52:33.701Z,12.98
2023-04-21T08:57:37.093Z,12.13
2023-04-21T09:03:01.399Z,11.55
2023-04-21T09:08:10.792Z,10.20
2023-04-21T09:13:14.432Z,9.70
2023-04-21T09:18:20.536Z,10.82
2023-04-21T09:23:24.258Z,10.45
2023-04-21T09:28:32.876Z,10.07
2023-04-21T09:33:46.098Z,8.90
2023-04-21T09:44:05.651Z,8.88
2023-04-21T09:49:12.803Z,7.93
2023-04-21T09:54:28.996Z,10.05
2023-04-21T09:59:37.360Z,9.07
2023-04-21T10:04:46.266Z,9.23
2023-04-21T10:09:54.205Z,9.45
2023-04-21T10:14:58.205Z,8.93
2023-04-21T10:20:07.282Z,9.60
2023-04-21T10:25:11.088Z,7.88
2023-04-21T10:30:22.475Z,8.45
2023-04-21T10:35:47.552Z,7.60
2023-04-21T10:40:52.973Z,8.00
2023-04-21T10:45:57.801Z,8.07
2023-04-21T10:51:03.049Z,7.07
2023-04-21T10:56:07.100Z,8.48
2023-04-21T11:01:13.417Z,6.97
2023-04-21T11:06:19.026Z,6.35
2023-04-21T11:11:24.293Z,6.40
2023-04-21T11:16:28.132Z,5.80
2023-04-21T11:21:33.561Z,5.68
2023-04-21T11:26:38.812Z,6.47
2023-04-21T11:31:44.044Z,6.95
2023-04-21T11:36:49.990Z,6.15
2023-04-21T11:41:54.049Z,6.70
2023-04-21T11:46:57.747Z,6.05
2023-04-21T11:52:05.084Z,5.65
2023-04-21T11:57:08.541Z,6.03
2023-04-21T12:02:21.981Z,5.20
2023-04-21T12:07:27.040Z,6.63
2023-04-21T12:12:31.148Z,6.55
2023-04-21T12:17:39.597Z,5.60
2023-04-21T12:22:50.788Z,5.45
2023-04-21T12:27:58.703Z,6.18
2023-04-21T12:33:02.503Z,6.15
2023-04-21T12:38:07.395Z,5.85
2023-04-21T12:43:10.820Z,5.40
2023-04-21T12:48:14.481Z,6.30
2023-04-21T12:53:19.612Z,5.57
2023-04-21T12:58:23.062Z,5.38
2023-04-21T13:03:26.633Z,6.63
2023-04-21T13:08:31.915Z,5.00
2023-04-21T13:13:35.611Z,5.90
2023-04-21T13:18:39.883Z,6.30
2023-04-21T13:23:46.240Z,4.63
2023-04-21T13:28:49.687Z,5.93
2023-04-21T13:33:53.955Z,5.13
2023-04-21T13:39:01.564Z,5.43
2023-04-21T13:44:05.508Z,6.22
2023-04-21T13:49:09.309Z,5.38
2023-04-21T13:54:14.045Z,5.60
2023-04-21T13:59:18.085Z,4.50
2023-04-21T14:04:22.694Z,5.03
2023-04-21T14:09:27.756Z,4.50
2023-04-21T14:19:41.095Z,4.22
2023-04-21T14:24:46.395Z,4.38
2023-04-21T14:29:50.085Z,4.30
2023-04-21T14:34:54.473Z,4.35
2023-04-21T14:39:59.231Z,3.95
2023-04-21T14:45:02.873Z,3.85
2023-04-21T14:50:08.113Z,3.63
2023-04-21T14:55:13.100Z,3.70
2023-04-21T15:00:17.236Z,4.15
2023-04-21T15:05:21.556Z,3.70
2023-04-21T15:10:26.674Z,3.20
2023-04-21T15:15:30.248Z,3.28
2023-04-21T15:20:43.816Z,3.67
2023-04-21T15:25:49.896Z,3.67
2023-04-21T15:30:53.357Z,3.97
2023-04-21T15:35:56.811Z,4.15
2023-04-21T15:41:01.870Z,3.88
2023-04-21T15:46:12.993Z,4.38
2023-04-21T15:51:17.068Z,5.72
2023-04-21T15:56:22.184Z,4.80
2023-04-21T16:01:25.963Z,4.55
2023-04-21T16:06:30.884Z,4.22
2023-04-21T16:11:35.779Z,3.95
2023-04-21T16:16:39.255Z,4.35
2023-04-21T16:21:43.345Z,4.40
2023-04-21T16:26:48.402Z,4.10
2023-04-21T16:31:51.846Z,5.03
2023-04-21T16:36:55.784Z,5.25
2023-04-21T16:42:01.190Z,4.97
2023-04-21T16:47:04.699Z,5.40
2023-04-21T16:52:08.371Z,4.80
2023-04-21T16:57:13.163Z,5.43
2023-04-21T17:02:16.667Z,5.13
2023-04-21T17:07:20.171Z,5.57
2023-04-21T17:12:24.949Z,4.88
2023-04-21T17:17:29.279Z,5.18
2023-04-21T17:22:32.764Z,5.07
2023-04-21T17:27:40.780Z,4.97
2023-04-21T17:32:44.254Z,5.47
2023-04-21T17:37:47.982Z,6.10
2023-04-21T17:42:52.744Z,5.15
2023-04-21T17:47:56.176Z,5.60
2023-04-21T17:52:59.855Z,5.78
2023-04-21T17:58:04.788Z,7.40
2023-04-21T18:03:08.557Z,8.88
2023-04-21T18:08:12.135Z,9.48
2023-04-21T18:13:16.887Z,10.05
2023-04-21T18:18:21.021Z,9.48
2023-04-21T18:23:24.920Z,6.05
2023-04-21T18:28:30.824Z,5.50
2023-04-21T18:33:34.405Z,6.03
2023-04-21T18:38:37.867Z,6.65
2023-04-21T18:43:43.892Z,6.82
2023-04-21T18:48:48.681Z,7.25
2023-04-21T18:53:52.493Z,5.88
2023-04-21T18:58:57.429Z,6.40
2023-04-21T19:04:02.888Z,7.10
2023-04-21T19:09:08.849Z,8.48
2023-04-21T19:14:13.692Z,9.13
2023-04-21T19:19:17.972Z,9.15
2023-04-21T19:24:23.157Z,8.68
2023-04-21T19:29:28.267Z,9.02
2023-04-21T19:34:32.204Z,8.93
2023-04-21T19:39:35.860Z,9.13
2023-04-21T19:44:40.800Z,8.75
2023-04-21T19:49:44.413Z,8.85
2023-04-21T19:54:48.592Z,8.52
2023-04-21T19:59:53.356Z,10.13
2023-04-21T20:04:56.937Z,8.55
2023-04-21T20:10:00.491Z,9.20
2023-04-21T20:15:06.069Z,9.10
2023-04-21T20:20:10.963Z,9.90
2023-04-21T20:25:14.453Z,9.63
2023-04-21T20:30:19.386Z,9.45
2023-04-21T20:35:22.951Z,8.55
2023-04-21T20:40:26.402Z,9.60
2023-04-21T20:45:31.624Z,9.95
2023-04-21T20:50:35.001Z,10.75
2023-04-21T20:55:38.849Z,10.05
2023-04-21T21:00:43.699Z,9.02
2023-04-21T21:05:47.292Z,9.60
2023-04-21T21:10:50.737Z,9.65
2023-04-21T21:15:55.519Z,9.32
2023-04-21T21:20:58.956Z,10.27
2023-04-21T21:26:02.500Z,9.60
2023-04-21T21:31:07.378Z,9.70
2023-04-21T21:36:12.037Z,10.05
2023-04-21T21:41:16.895Z,10.27
2023-04-21T21:46:22.191Z,9.98
2023-04-21T21:51:25.709Z,10.93
2023-04-21T21:56:29.093Z,13.32
2023-04-21T22:01:34.245Z,30.45
2023-04-21T22:06:38.288Z,13.82
2023-04-21T22:11:41.966Z,10.98
2023-04-21T22:16:47.454Z,10.05
2023-04-21T22:21:50.917Z,11.75
2023-04-21T22:26:54.310Z,11.35
2023-04-21T22:31:59.577Z,16.33
2023-04-21T22:37:03.030Z,12.88
2023-04-21T22:42:06.933Z,12.60
2023-04-21T22:47:12.075Z,12.65
2023-04-21T22:52:15.547Z,13.02
2023-04-21T22:57:19.725Z,12.77
2023-04-21T23:02:24.635Z,13.13
2023-04-21T23:07:28.158Z,12.90
2023-04-21T23:12:31.912Z,12.82
2023-04-21T23:17:36.711Z,12.90
2023-04-21T23:22:40.143Z,11.75
2023-04-21T23:27:44.058Z,10.85
2023-04-21T23:32:48.872Z,11.48
2023-04-21T23:37:53.891Z,17.30
2023-04-21T23:42:57.711Z,11.88
2023-04-21T23:48:02.490Z,13.38
2023-04-21T23:53:06.037Z,16.67
2023-04-21T23:58:09.651Z,19.48
